CheckWX is a tool to help pilots better visualize weather data.  It is not intended as a substitute for an official pre-flight weather briefing.

21:08:37 UTC

EFPO METAR
Pori Airport
Pori, Finland
Current

19 mins ago

EFPO 202050Z AUTO 00000KT CAVOK 03/00 Q1026
Observed
Apr-20 @ 20:50 UTC
Visibility
10,000+ meters
Flight Rules
VFR
Cloud Levels
  • Clear skies
Temperature
C / 37°F
Dewpoint
C / 32°F
Humidity
81%
Altimeter
30.3" Hg
Pressure
1025.92 hPa
Previous

49 mins ago

EFPO 202020Z AUTO 14002KT CAVOK 04/01 Q1026
Observed
Apr-20 @ 20:20 UTC
Wind
  • 140° at 2 KTS
Visibility
10,000+ meters
Flight Rules
VFR
Cloud Levels
  • Clear skies
Temperature
C / 39°F
Dewpoint
C / 34°F
Humidity
81%
Altimeter
30.3" Hg
Pressure
1025.92 hPa
Previous

1 hour ago

EFPO 201950Z AUTO 11002KT CAVOK 04/00 Q1026
Observed
Apr-20 @ 19:50 UTC
Wind
  • 110° at 2 KTS
Visibility
10,000+ meters
Flight Rules
VFR
Cloud Levels
  • Clear skies
Temperature
C / 39°F
Dewpoint
C / 32°F
Humidity
75%
Altimeter
30.3" Hg
Pressure
1025.92 hPa